AAL285 KLAX-KSFO
Flight info
| Callsign | AAL285 |
|---|---|
| Flight time | N/A |
| Altitude | 25000 |
| Route | SUMMR2 STOKD SERFR SERFR4 |
| Aircraft | B77W/H-SDE1E2E3FGHIJ2J3J4J5M1RWXY/LB1D1 |
Departure
| Time | 2026-04-21 04:29 |
|---|---|
| Airport | Los Angeles International Airport (KLAX) |
Arrival
| Time | N/A |
|---|---|
| Airport | San Francisco International Airport (KSFO) |
| Time | Latitude | Longitude | Altitude | Speed | Heading |
|---|---|---|---|---|---|
| 2026-04-21 03:46 | 33.94021 | -118.41080 | 134 ft | 0 kts | 83° |
| 2026-04-21 04:17 | 33.94019 | -118.41095 | 129 ft | 3 kts | 84° |
| 2026-04-21 04:17 | 33.94017 | -118.41119 | 135 ft | 3 kts | 83° |
| 2026-04-21 04:17 | 33.94015 | -118.41144 | 134 ft | 3 kts | 84° |
| 2026-04-21 04:18 | 33.94013 | -118.41162 | 134 ft | 2 kts | 33° |
| 2026-04-21 04:18 | 33.94008 | -118.41172 | 131 ft | 1 kts | 357° |
| 2026-04-21 04:18 | 33.94001 | -118.41175 | 131 ft | 1 kts | 52° |
| 2026-04-21 04:18 | 33.93999 | -118.41180 | 132 ft | 0 kts | 344° |
| 2026-04-21 04:21 | 33.94038 | -118.41187 | 122 ft | 12 kts | 354° |
| 2026-04-21 04:21 | 33.94157 | -118.41204 | 131 ft | 23 kts | 353° |
| 2026-04-21 04:21 | 33.94332 | -118.41231 | 127 ft | 18 kts | 353° |
| 2026-04-21 04:21 | 33.94459 | -118.41250 | 126 ft | 19 kts | 353° |
| 2026-04-21 04:22 | 33.94595 | -118.41271 | 130 ft | 21 kts | 353° |
| 2026-04-21 04:22 | 33.94709 | -118.41288 | 131 ft | 0 kts | 353° |
| 2026-04-21 04:22 | 33.94766 | -118.41284 | 133 ft | 8 kts | 21° |
| 2026-04-21 04:23 | 33.94793 | -118.41229 | 130 ft | 8 kts | 83° |
| 2026-04-21 04:23 | 33.94806 | -118.41156 | 131 ft | 10 kts | 76° |
| 2026-04-21 04:23 | 33.94817 | -118.41073 | 128 ft | 11 kts | 82° |
| 2026-04-21 04:23 | 33.94828 | -118.40976 | 130 ft | 12 kts | 82° |
| 2026-04-21 04:24 | 33.94840 | -118.40869 | 136 ft | 14 kts | 83° |
| 2026-04-21 04:24 | 33.94852 | -118.40750 | 135 ft | 15 kts | 84° |
| 2026-04-21 04:24 | 33.94864 | -118.40615 | 126 ft | 17 kts | 83° |
| 2026-04-21 04:24 | 33.94878 | -118.40462 | 126 ft | 20 kts | 82° |
| 2026-04-21 04:25 | 33.94899 | -118.40289 | 127 ft | 21 kts | 82° |
| 2026-04-21 04:25 | 33.94918 | -118.40104 | 124 ft | 23 kts | 83° |
| 2026-04-21 04:25 | 33.94946 | -118.39944 | 122 ft | 18 kts | 54° |
| 2026-04-21 04:25 | 33.95038 | -118.39955 | 123 ft | 11 kts | 282° |
| 2026-04-21 04:26 | 33.95039 | -118.39976 | 123 ft | 0 kts | 266° |
| 2026-04-21 04:27 | 33.95039 | -118.39978 | 123 ft | 2 kts | 266° |
| 2026-04-21 04:27 | 33.95030 | -118.40106 | 128 ft | 33 kts | 263° |
| 2026-04-21 04:28 | 33.94984 | -118.40527 | 124 ft | 72 kts | 263° |
| 2026-04-21 04:28 | 33.94901 | -118.41310 | 124 ft | 115 kts | 263° |
| 2026-04-21 04:28 | 33.94787 | -118.42415 | 127 ft | 149 kts | 263° |
| 2026-04-21 04:28 | 33.94655 | -118.43683 | 407 ft | 154 kts | 262° |
| 2026-04-21 04:29 | 33.94512 | -118.44997 | 734 ft | 167 kts | 261° |
| 2026-04-21 04:29 | 33.94354 | -118.46480 | 948 ft | 189 kts | 262° |
| 2026-04-21 04:29 | 33.94208 | -118.48083 | 1288 ft | 201 kts | 266° |
| 2026-04-21 04:29 | 33.94166 | -118.49804 | 1616 ft | 212 kts | 269° |
| 2026-04-21 04:30 | 33.94160 | -118.51631 | 1878 ft | 224 kts | 267° |
| 2026-04-21 04:30 | 33.94033 | -118.53560 | 2174 ft | 238 kts | 264° |
| 2026-04-21 04:30 | 33.93867 | -118.55596 | 2496 ft | 250 kts | 264° |
| 2026-04-21 04:30 | 33.93696 | -118.57708 | 2959 ft | 256 kts | 264° |
| 2026-04-21 04:31 | 33.93525 | -118.59857 | 3426 ft | 261 kts | 263° |
| 2026-04-21 04:31 | 33.93351 | -118.62051 | 3880 ft | 265 kts | 263° |
| 2026-04-21 04:31 | 33.93178 | -118.64242 | 4403 ft | 260 kts | 263° |
| 2026-04-21 04:31 | 33.93009 | -118.66415 | 4924 ft | 261 kts | 263° |
| 2026-04-21 04:32 | 33.92840 | -118.68588 | 5358 ft | 261 kts | 263° |
| 2026-04-21 04:32 | 33.92671 | -118.70766 | 5801 ft | 262 kts | 262° |
| 2026-04-21 04:32 | 33.92501 | -118.72956 | 6258 ft | 263 kts | 262° |
| 2026-04-21 04:32 | 33.92332 | -118.75145 | 6699 ft | 264 kts | 262° |
| 2026-04-21 04:33 | 33.92162 | -118.77320 | 7127 ft | 264 kts | 262° |
| 2026-04-21 04:33 | 33.91989 | -118.79524 | 7582 ft | 264 kts | 262° |
| 2026-04-21 04:33 | 33.91817 | -118.81713 | 8111 ft | 263 kts | 261° |
| 2026-04-21 04:33 | 33.91667 | -118.83932 | 8667 ft | 270 kts | 265° |
| 2026-04-21 04:34 | 33.91704 | -118.86216 | 9243 ft | 275 kts | 269° |
| 2026-04-21 04:34 | 33.91805 | -118.88523 | 9828 ft | 277 kts | 269° |
| 2026-04-21 04:34 | 33.91902 | -118.90840 | 10353 ft | 278 kts | 269° |
| 2026-04-21 04:34 | 33.91984 | -118.93170 | 10872 ft | 279 kts | 268° |
| 2026-04-21 04:35 | 33.92058 | -118.95511 | 11406 ft | 280 kts | 268° |
| 2026-04-21 04:35 | 33.92127 | -118.97855 | 11947 ft | 281 kts | 268° |
| 2026-04-21 04:35 | 33.92249 | -119.00210 | 12482 ft | 284 kts | 275° |
| 2026-04-21 04:35 | 33.92740 | -119.02492 | 13030 ft | 286 kts | 283° |
| 2026-04-21 04:36 | 33.93585 | -119.04709 | 13604 ft | 299 kts | 296° |
| 2026-04-21 04:36 | 33.94741 | -119.06842 | 14079 ft | 306 kts | 300° |
| 2026-04-21 04:36 | 33.95928 | -119.08950 | 14575 ft | 304 kts | 299° |
| 2026-04-21 04:36 | 33.97082 | -119.11081 | 15077 ft | 303 kts | 298° |
| 2026-04-21 04:37 | 33.98208 | -119.13227 | 15605 ft | 304 kts | 297° |
| 2026-04-21 04:37 | 33.99331 | -119.15396 | 16149 ft | 306 kts | 297° |
| 2026-04-21 04:37 | 34.00530 | -119.17543 | 16700 ft | 312 kts | 304° |
| 2026-04-21 04:37 | 34.01991 | -119.19494 | 17256 ft | 315 kts | 310° |
| 2026-04-21 04:38 | 34.03675 | -119.21238 | 17842 ft | 323 kts | 319° |
| 2026-04-21 04:38 | 34.05534 | -119.22824 | 18432 ft | 331 kts | 322° |
| 2026-04-21 04:38 | 34.07445 | -119.24384 | 18951 ft | 340 kts | 322° |
| 2026-04-21 04:38 | 34.09428 | -119.26009 | 19493 ft | 349 kts | 322° |
| 2026-04-21 04:39 | 34.11451 | -119.27690 | 20039 ft | 357 kts | 321° |
| 2026-04-21 04:39 | 34.13510 | -119.29426 | 20590 ft | 365 kts | 321° |
| 2026-04-21 04:39 | 34.15608 | -119.31213 | 21154 ft | 373 kts | 321° |
| 2026-04-21 04:39 | 34.17743 | -119.33042 | 21724 ft | 380 kts | 321° |
| 2026-04-21 04:40 | 34.19911 | -119.34908 | 22308 ft | 386 kts | 321° |
| 2026-04-21 04:40 | 34.22109 | -119.36804 | 22901 ft | 392 kts | 320° |
| 2026-04-21 04:40 | 34.24343 | -119.38732 | 23499 ft | 397 kts | 320° |
| 2026-04-21 04:40 | 34.26605 | -119.40687 | 24030 ft | 401 kts | 320° |
| 2026-04-21 04:41 | 34.28885 | -119.42658 | 24550 ft | 406 kts | 320° |
| 2026-04-21 04:41 | 34.31158 | -119.44624 | 25056 ft | 409 kts | 320° |
| 2026-04-21 04:41 | 34.33516 | -119.46665 | 25591 ft | 412 kts | 320° |
| 2026-04-21 04:41 | 34.35833 | -119.48674 | 25906 ft | 421 kts | 320° |
| 2026-04-21 04:42 | 34.38224 | -119.50747 | 25883 ft | 425 kts | 320° |
| 2026-04-21 04:42 | 34.40609 | -119.52863 | 25884 ft | 424 kts | 317° |
| 2026-04-21 04:42 | 34.42811 | -119.55212 | 25876 ft | 420 kts | 311° |
| 2026-04-21 04:42 | 34.44863 | -119.57725 | 25887 ft | 419 kts | 310° |
| 2026-04-21 04:43 | 34.46891 | -119.60249 | 25882 ft | 418 kts | 310° |
| 2026-04-21 04:43 | 34.48921 | -119.62779 | 25882 ft | 418 kts | 310° |
| 2026-04-21 04:43 | 34.50950 | -119.65305 | 25889 ft | 418 kts | 310° |
| 2026-04-21 04:43 | 34.52294 | -119.66974 | 25890 ft | 418 kts | 310° |
| 2026-04-21 04:44 | 34.54985 | -119.70307 | 25884 ft | 418 kts | 310° |
| 2026-04-21 04:44 | 34.57025 | -119.72828 | 25883 ft | 419 kts | 310° |
| 2026-04-21 04:44 | 34.59068 | -119.75351 | 25916 ft | 419 kts | 310° |
| 2026-04-21 04:44 | 34.61112 | -119.77875 | 25965 ft | 419 kts | 310° |
| 2026-04-21 04:45 | 34.63157 | -119.80401 | 26032 ft | 422 kts | 310° |
| 2026-04-21 04:45 | 34.65249 | -119.82994 | 26059 ft | 437 kts | 310° |
| 2026-04-21 04:45 | 34.67415 | -119.85683 | 26065 ft | 452 kts | 310° |
| 2026-04-21 04:45 | 34.69640 | -119.88445 | 26070 ft | 461 kts | 310° |
| 2026-04-21 04:46 | 34.71892 | -119.91236 | 26074 ft | 463 kts | 310° |
| 2026-04-21 04:46 | 34.74117 | -119.93991 | 26058 ft | 461 kts | 310° |
| 2026-04-21 04:46 | 34.76358 | -119.96768 | 26057 ft | 460 kts | 310° |
| 2026-04-21 04:46 | 34.78595 | -119.99544 | 26049 ft | 458 kts | 310° |
| 2026-04-21 04:47 | 34.80820 | -120.02311 | 26057 ft | 458 kts | 310° |
| 2026-04-21 04:47 | 34.83048 | -120.05085 | 26052 ft | 458 kts | 310° |
| 2026-04-21 04:47 | 34.85275 | -120.07859 | 26056 ft | 458 kts | 310° |
| 2026-04-21 04:47 | 34.87503 | -120.10641 | 26052 ft | 460 kts | 310° |
| 2026-04-21 04:48 | 34.89736 | -120.13430 | 26046 ft | 461 kts | 310° |
| 2026-04-21 04:48 | 34.91971 | -120.16226 | 26019 ft | 461 kts | 310° |
| 2026-04-21 04:48 | 34.94209 | -120.19023 | 26048 ft | 461 kts | 310° |
| 2026-04-21 04:48 | 34.96423 | -120.21793 | 26050 ft | 462 kts | 310° |
| 2026-04-21 04:49 | 34.98663 | -120.24598 | 26050 ft | 463 kts | 310° |
| 2026-04-21 04:49 | 35.00907 | -120.27408 | 26026 ft | 462 kts | 310° |
| 2026-04-21 04:49 | 35.03150 | -120.30221 | 26047 ft | 462 kts | 310° |
| 2026-04-21 04:49 | 35.05391 | -120.33040 | 26057 ft | 463 kts | 310° |
| 2026-04-21 04:50 | 35.07634 | -120.35860 | 26054 ft | 463 kts | 310° |
| 2026-04-21 04:50 | 35.09919 | -120.38635 | 26041 ft | 464 kts | 312° |
| 2026-04-21 04:50 | 35.12279 | -120.41318 | 26058 ft | 464 kts | 313° |
| 2026-04-21 04:50 | 35.14672 | -120.43979 | 26053 ft | 465 kts | 313° |
| 2026-04-21 04:51 | 35.17068 | -120.46628 | 26035 ft | 465 kts | 313° |
| 2026-04-21 04:51 | 35.19429 | -120.49247 | 26043 ft | 464 kts | 313° |
| 2026-04-21 04:51 | 35.21817 | -120.51909 | 26043 ft | 464 kts | 313° |
| 2026-04-21 04:51 | 35.24198 | -120.54576 | 26039 ft | 464 kts | 313° |
| 2026-04-21 04:52 | 35.26578 | -120.57252 | 26049 ft | 465 kts | 313° |
| 2026-04-21 04:52 | 35.28954 | -120.59928 | 26046 ft | 465 kts | 313° |
| 2026-04-21 04:52 | 35.31338 | -120.62617 | 26040 ft | 466 kts | 313° |
| 2026-04-21 04:52 | 35.33719 | -120.65304 | 26041 ft | 466 kts | 313° |
| 2026-04-21 04:53 | 35.36098 | -120.67989 | 26038 ft | 465 kts | 313° |
| 2026-04-21 04:53 | 35.38478 | -120.70678 | 26043 ft | 466 kts | 313° |
| 2026-04-21 04:53 | 35.40858 | -120.73368 | 26042 ft | 466 kts | 313° |
| 2026-04-21 04:53 | 35.43208 | -120.76028 | 26033 ft | 465 kts | 313° |
| 2026-04-21 04:54 | 35.45585 | -120.78718 | 26034 ft | 465 kts | 313° |
| 2026-04-21 04:54 | 35.47965 | -120.81404 | 26053 ft | 465 kts | 314° |
| 2026-04-21 04:54 | 35.50482 | -120.83930 | 26052 ft | 468 kts | 318° |
| 2026-04-21 04:54 | 35.53085 | -120.86342 | 26052 ft | 469 kts | 318° |
| 2026-04-21 04:55 | 35.55703 | -120.88739 | 26052 ft | 470 kts | 319° |
| 2026-04-21 04:55 | 35.58328 | -120.91140 | 26057 ft | 470 kts | 318° |
| 2026-04-21 04:55 | 35.60947 | -120.93549 | 26057 ft | 470 kts | 318° |
| 2026-04-21 04:55 | 35.63560 | -120.95965 | 26052 ft | 471 kts | 318° |
| 2026-04-21 04:56 | 35.66137 | -120.98360 | 26040 ft | 471 kts | 318° |
| 2026-04-21 04:56 | 35.68752 | -121.00796 | 26036 ft | 471 kts | 318° |
| 2026-04-21 04:56 | 35.71365 | -121.03234 | 26037 ft | 471 kts | 317° |
| 2026-04-21 04:56 | 35.73974 | -121.05671 | 26038 ft | 471 kts | 318° |
| 2026-04-21 04:57 | 35.76588 | -121.08115 | 26035 ft | 471 kts | 318° |
| 2026-04-21 04:57 | 35.79198 | -121.10556 | 26031 ft | 471 kts | 317° |
| 2026-04-21 04:57 | 35.81809 | -121.12999 | 26036 ft | 471 kts | 317° |
| 2026-04-21 04:57 | 35.84420 | -121.15446 | 26031 ft | 472 kts | 317° |
| 2026-04-21 04:58 | 35.86982 | -121.17846 | 25898 ft | 464 kts | 317° |
| 2026-04-21 04:58 | 35.89514 | -121.20216 | 25650 ft | 451 kts | 317° |
| 2026-04-21 04:58 | 35.91975 | -121.22521 | 25401 ft | 438 kts | 317° |
| 2026-04-21 04:58 | 35.94372 | -121.24772 | 25144 ft | 428 kts | 317° |
| 2026-04-21 04:59 | 35.96712 | -121.26974 | 24891 ft | 418 kts | 317° |
| 2026-04-21 04:59 | 35.97077 | -121.27318 | 24854 ft | 416 kts | 317° |